Hlavní strana
METAR-TAF:

METAR-TAF

Letiště :

Groznyj, Rusko

zeměpisná šířka: 43-23-18N, zeměpisná délka: 045-41-59E, výška: 167 m

Aktuální stav počasí

Zpráva byla vytvořena před 12 minutami, v 07:30 UTC
Západojihozápadní vítr 4 kt, proměnlivý mezi jihojihozápadním a západním
Teplota 6°C
Vlhkost vzduchu 70%
Tlak 1020 hPa
Viditelnost 10 km a více
Žádná oblačnost pod 1500 m, nevyskytují se cumulonimby.

METAR: URMG 060730Z 24002MPS 210V270 CAVOK 06/01 Q1020 R26/090070 NOSIG RMK QFE750/1000

Čas: 10:42 (07:42 UTC)

Předpověď počasí

Zpráva byla vytvořena před 2 hodinami a 42 minutami, v 05:00 UTC
Předpověď platná od 06 v 06 UTC do 06 v 15 UTC
Západní vítr 6 kt s nárazy do 16 kt
Viditelnost 10 km a více
Žádná oblačnost pod 1500 m, nevyskytují se cumulonimby.
Změna
od 06 v 08 UTC do 06 v 10 UTC
Východní vítr 6 kt s nárazy do 16 kt

TAF: URMG 060500Z 0606/0615 28003G08MPS CAVOK BECMG 0608/0610 10003G08MPS

Stav a předpovědi počasí z více než 4 000 letišť (zprávy METAR a TAF).

Červené a žluté tečky na mapě představují dostupné meteorologické stanice.

Když kurzor umístíte na tečku, zobrazí se název stanice.

Pak kliknutím zobrazíte stav a předpověď počasí.

Chcete-li změnit mapu, kliknutím na zelené tlačítko se znaménkem +mapu přiblížíte, kliknutím na zelené tlačítko se znaménkem – mapu oddálíte a kliknutím na zelené šipky přejdete na sousední mapy.


METAR-TAF: